Time;durP1;ratioP1;P1;durP2;ratioP2;P2;SDS_P1;SDS_P2;PMS_P1;PMS_P2;Temp;Humidity;BMP_temperature;BMP_pressure;BME280_temperature;BME280_humidity;BME280_pressure;Samples;Min_cycle;Max_cycle;Signal;HPM_P1;HPM_P2
2023/12/27 00:01:46;;;;;;;6.07;3.13;;;10.80;99.90;;;;;;5004385;28;20437;-31
2023/12/27 00:04:12;;;;;;;5.53;3.00;;;10.80;99.90;;;;;;5008234;28;20423;-32
2023/12/27 00:06:38;;;;;;;8.37;2.73;;;10.80;99.90;;;;;;5000075;28;20479;-32
2023/12/27 00:09:06;;;;;;;7.93;3.30;;;10.80;99.90;;;;;;4999249;28;21709;-28
2023/12/27 00:11:34;;;;;;;5.63;3.20;;;10.80;99.90;;;;;;5004109;28;20480;-31
2023/12/27 00:14:00;;;;;;;7.90;3.63;;;10.80;99.90;;;;;;5000685;28;20440;-28
2023/12/27 00:16:26;;;;;;;6.40;3.00;;;10.80;99.90;;;;;;5000914;28;20530;-32
2023/12/27 00:18:55;;;;;;;5.60;3.40;;;10.80;99.90;;;;;;5002552;28;20452;-33
2023/12/27 00:21:21;;;;;;;8.07;3.30;;;10.80;99.90;;;;;;4997727;28;20433;-29
2023/12/27 00:23:47;;;;;;;4.20;2.97;;;10.80;99.90;;;;;;4999011;28;20754;-29
2023/12/27 00:26:13;;;;;;;5.70;3.23;;;10.80;99.90;;;;;;4995936;28;20499;-30
2023/12/27 00:28:40;;;;;;;5.60;3.40;;;10.80;99.90;;;;;;5003748;28;20880;-32
2023/12/27 00:31:08;;;;;;;5.20;3.40;;;10.70;99.90;;;;;;4993529;28;20495;-30
2023/12/27 00:33:34;;;;;;;7.03;3.20;;;10.70;99.90;;;;;;4999865;28;20934;-31
2023/12/27 00:36:00;;;;;;;6.70;3.07;;;10.70;99.90;;;;;;5003032;28;20675;-32
2023/12/27 00:38:29;;;;;;;6.37;2.80;;;10.70;99.90;;;;;;4999558;28;20471;-28
2023/12/27 00:40:55;;;;;;;7.83;3.10;;;10.70;99.90;;;;;;4997355;28;20540;-28
2023/12/27 00:43:23;;;;;;;6.50;3.70;;;10.70;99.90;;;;;;4985530;28;20435;-29
2023/12/27 00:45:49;;;;;;;3.80;2.90;;;10.70;99.90;;;;;;5000293;28;20463;-28
2023/12/27 00:48:16;;;;;;;9.07;3.17;;;10.70;99.90;;;;;;4999550;28;20476;-30
2023/12/27 00:50:46;;;;;;;4.77;3.13;;;10.70;99.90;;;;;;4990386;28;21015;-31
2023/12/27 00:53:15;;;;;;;7.47;3.00;;;10.70;99.90;;;;;;5003638;28;20846;-31
2023/12/27 00:55:41;;;;;;;5.73;3.10;;;10.70;99.90;;;;;;4996989;28;20495;-33
2023/12/27 00:58:07;;;;;;;4.53;2.63;;;10.70;99.90;;;;;;4999662;28;21006;-31
2023/12/27 01:00:36;;;;;;;8.13;3.00;;;10.70;99.90;;;;;;4999455;28;21260;-33
2023/12/27 01:03:02;;;;;;;6.60;3.43;;;10.60;99.90;;;;;;4993439;28;20429;-31
2023/12/27 01:05:31;;;;;;;5.50;3.10;;;10.60;99.90;;;;;;4998885;28;20431;-31
2023/12/27 01:07:57;;;;;;;8.50;3.40;;;10.60;99.90;;;;;;4962437;28;20481;-28
2023/12/27 01:10:25;;;;;;;4.10;2.67;;;10.60;99.90;;;;;;4996904;28;20999;-30
2023/12/27 01:12:51;;;;;;;11.60;3.47;;;10.60;99.90;;;;;;4997995;28;20421;-29
2023/12/27 01:15:19;;;;;;;7.97;3.03;;;10.60;99.90;;;;;;4997414;28;20436;-29
2023/12/27 01:17:45;;;;;;;5.10;2.90;;;10.60;99.90;;;;;;4994249;28;20702;-32
2023/12/27 01:20:13;;;;;;;4.87;3.10;;;10.60;99.90;;;;;;4997598;28;20440;-28
2023/12/27 01:22:39;;;;;;;5.77;3.10;;;10.60;99.90;;;;;;5001225;28;20444;-30
2023/12/27 01:25:11;;;;;;;4.90;2.70;;;10.60;99.90;;;;;;4974213;28;20450;-30
2023/12/27 01:27:39;;;;;;;5.60;3.07;;;10.60;99.90;;;;;;5003247;28;20511;-30
2023/12/27 01:30:06;;;;;;;6.87;2.83;;;10.60;99.90;;;;;;4961169;28;20475;-29
2023/12/27 01:32:32;;;;;;;5.53;2.83;;;10.50;99.90;;;;;;4995953;28;21393;-28
2023/12/27 01:34:58;;;;;;;8.10;3.10;;;10.60;99.90;;;;;;5001796;28;20936;-29
2023/12/27 01:37:24;;;;;;;5.13;2.93;;;10.50;99.90;;;;;;5007089;28;20452;-29
2023/12/27 01:39:51;;;;;;;9.53;4.03;;;10.50;99.90;;;;;;5000687;28;20428;-33
2023/12/27 01:42:17;;;;;;;4.83;3.30;;;10.50;99.90;;;;;;4966840;28;20490;-30
2023/12/27 01:44:45;;;;;;;10.40;4.20;;;10.50;99.90;;;;;;4977087;28;21109;-31
2023/12/27 01:47:13;;;;;;;5.80;3.70;;;10.50;99.90;;;;;;4992059;28;20554;-32
2023/12/27 01:49:41;;;;;;;5.43;3.43;;;10.50;99.90;;;;;;4989012;28;20436;-30
2023/12/27 01:52:09;;;;;;;7.23;3.70;;;10.50;99.90;;;;;;4978605;28;20441;-33
2023/12/27 01:54:37;;;;;;;5.10;3.90;;;10.50;99.90;;;;;;4998060;28;20437;-32
2023/12/27 01:57:04;;;;;;;4.87;3.23;;;10.40;99.90;;;;;;4998412;28;20455;-30
2023/12/27 01:59:32;;;;;;;6.03;3.23;;;10.50;99.90;;;;;;4996162;28;20535;-29
2023/12/27 02:02:01;;;;;;;3.47;3.10;;;10.50;99.90;;;;;;4997273;28;20436;-33
2023/12/27 02:04:27;;;;;;;5.83;3.10;;;10.50;99.90;;;;;;4996185;28;20452;-29
2023/12/27 02:06:54;;;;;;;6.33;3.80;;;10.50;99.90;;;;;;4979866;28;20448;-33
2023/12/27 02:09:21;;;;;;;6.33;3.53;;;10.40;99.90;;;;;;4994314;28;20567;-28
2023/12/27 02:11:47;;;;;;;6.47;3.50;;;10.40;99.90;;;;;;4997278;28;20428;-29
2023/12/27 02:14:13;;;;;;;6.30;3.60;;;10.40;99.90;;;;;;4979785;28;20478;-32
2023/12/27 02:16:42;;;;;;;6.93;3.43;;;10.40;99.90;;;;;;4998553;28;20441;-31
2023/12/27 02:19:15;;;;;;;7.07;3.90;;;10.40;99.90;;;;;;4996787;28;20841;-31
2023/12/27 02:21:49;;;;;;;4.13;3.40;;;10.40;99.90;;;;;;4984757;28;20445;-31
2023/12/27 02:24:19;;;;;;;5.33;3.47;;;10.40;99.90;;;;;;4997417;28;20838;-29
2023/12/27 02:26:48;;;;;;;8.30;4.30;;;10.40;99.90;;;;;;4991784;28;20447;-28
2023/12/27 02:29:15;;;;;;;8.90;3.40;;;10.40;99.90;;;;;;4992837;28;20494;-33
2023/12/27 02:31:43;;;;;;;7.70;4.37;;;10.30;99.90;;;;;;4996238;28;20421;-28
2023/12/27 02:34:09;;;;;;;7.17;3.57;;;10.30;99.90;;;;;;5001631;28;20909;-29
2023/12/27 02:36:40;;;;;;;5.77;3.73;;;10.30;99.90;;;;;;4999325;28;20523;-32
2023/12/27 02:39:06;;;;;;;4.33;3.30;;;10.30;99.90;;;;;;4998917;28;20486;-31
2023/12/27 02:41:32;;;;;;;5.40;4.00;;;10.30;99.90;;;;;;4996722;28;20495;-31
2023/12/27 02:44:01;;;;;;;7.40;4.30;;;10.30;99.90;;;;;;5006228;28;20439;-29
2023/12/27 02:46:32;;;;;;;6.57;3.27;;;10.30;99.90;;;;;;4995920;28;20456;-28
2023/12/27 02:49:01;;;;;;;7.20;3.73;;;10.30;99.90;;;;;;4979705;28;20518;-28
2023/12/27 02:51:27;;;;;;;11.40;3.57;;;10.30;99.90;;;;;;4997229;28;20429;-31
2023/12/27 02:53:53;;;;;;;7.83;4.60;;;10.30;99.90;;;;;;4998137;28;20452;-28
2023/12/27 02:56:22;;;;;;;5.43;3.33;;;10.30;99.90;;;;;;4979737;28;20449;-29
2023/12/27 02:58:48;;;;;;;5.43;3.50;;;10.30;99.90;;;;;;4999678;28;20433;-30
2023/12/27 03:01:16;;;;;;;6.10;3.63;;;10.20;99.90;;;;;;4997140;28;21286;-34
2023/12/27 03:03:47;;;;;;;5.47;3.27;;;10.30;99.90;;;;;;4979287;28;20473;-29
2023/12/27 03:06:13;;;;;;;4.40;4.00;;;10.20;99.90;;;;;;4995073;28;20441;-30
2023/12/27 03:08:41;;;;;;;7.47;3.90;;;10.30;99.90;;;;;;5004429;28;20476;-32
2023/12/27 03:11:09;;;;;;;9.90;4.77;;;10.20;99.90;;;;;;4992016;28;20504;-30
2023/12/27 03:13:36;;;;;;;11.90;4.30;;;10.20;99.90;;;;;;5000865;28;21127;-32
2023/12/27 03:16:08;;;;;;;4.80;3.53;;;10.20;99.90;;;;;;5001738;28;20876;-29
2023/12/27 03:18:34;;;;;;;8.20;3.90;;;10.20;99.90;;;;;;4975430;28;20522;-30
2023/12/27 03:21:07;;;;;;;6.87;3.90;;;10.20;99.90;;;;;;5004548;28;20583;-33
2023/12/27 03:23:35;;;;;;;7.63;3.50;;;10.20;99.90;;;;;;4983028;28;20524;-34
2023/12/27 03:26:01;;;;;;;6.47;4.10;;;10.20;99.90;;;;;;5002355;28;20443;-33
2023/12/27 03:28:27;;;;;;;6.20;4.20;;;10.20;99.90;;;;;;4997357;28;20583;-29
2023/12/27 03:30:53;;;;;;;10.93;3.70;;;10.20;99.90;;;;;;5005840;28;20429;-29
2023/12/27 03:33:19;;;;;;;9.83;4.30;;;10.20;99.90;;;;;;4974597;23;20497;-30
2023/12/27 03:35:45;;;;;;;7.30;4.30;;;10.20;99.90;;;;;;4965342;28;20426;-31
2023/12/27 03:38:14;;;;;;;5.10;3.80;;;10.10;99.90;;;;;;4960953;28;21065;-28
2023/12/27 03:40:42;;;;;;;6.37;3.63;;;10.10;99.90;;;;;;4938768;28;20438;-32
2023/12/27 03:43:08;;;;;;;7.67;3.90;;;10.10;99.90;;;;;;4976760;28;20481;-31
2023/12/27 03:45:38;;;;;;;16.23;4.40;;;10.10;99.90;;;;;;4970778;28;20434;-31
2023/12/27 03:48:04;;;;;;;5.27;3.53;;;10.10;99.90;;;;;;4965119;28;20490;-31
2023/12/27 03:50:30;;;;;;;5.73;3.70;;;10.10;99.90;;;;;;4971395;28;20973;-32
2023/12/27 03:52:56;;;;;;;12.00;5.13;;;10.10;99.90;;;;;;4968014;28;20456;-25
2023/12/27 03:55:24;;;;;;;5.43;3.93;;;10.10;99.90;;;;;;4962957;28;20422;-30
2023/12/27 03:57:51;;;;;;;6.47;4.07;;;10.10;99.90;;;;;;4974254;28;20516;-31
2023/12/27 04:00:18;;;;;;;6.50;5.00;;;10.10;99.90;;;;;;4972674;28;21040;-27
2023/12/27 04:02:46;;;;;;;6.03;4.00;;;10.10;99.90;;;;;;4973616;28;20588;-25
2023/12/27 04:05:13;;;;;;;8.20;3.80;;;10.10;99.90;;;;;;4960245;28;20439;-27
2023/12/27 04:07:39;;;;;;;7.00;3.70;;;10.10;99.90;;;;;;4971926;28;20557;-33
2023/12/27 04:10:06;;;;;;;5.37;3.60;;;10.00;99.90;;;;;;4967180;28;20422;-31
2023/12/27 04:12:32;;;;;;;5.43;3.60;;;10.00;99.90;;;;;;4961347;28;20446;-35
2023/12/27 04:14:58;;;;;;;9.70;3.83;;;10.00;99.90;;;;;;4977304;28;20439;-28
2023/12/27 04:17:26;;;;;;;8.03;4.13;;;10.00;99.90;;;;;;4934480;28;20453;-26
2023/12/27 04:19:55;;;;;;;4.37;3.70;;;10.00;99.90;;;;;;4973761;28;20450;-34
2023/12/27 04:22:21;;;;;;;7.13;3.87;;;10.00;99.90;;;;;;4966982;28;20442;-28
2023/12/27 04:24:47;;;;;;;7.73;3.83;;;10.00;99.90;;;;;;4964405;28;20431;-32
2023/12/27 04:27:14;;;;;;;4.47;3.40;;;10.00;99.90;;;;;;4975441;28;20492;-31
2023/12/27 04:29:42;;;;;;;6.33;4.07;;;10.00;99.90;;;;;;4983458;28;20490;-35
2023/12/27 04:32:10;;;;;;;7.83;3.67;;;10.00;99.90;;;;;;4977443;28;20470;-27
2023/12/27 04:34:41;;;;;;;6.03;3.70;;;10.00;99.90;;;;;;4971726;28;20419;-27
2023/12/27 04:37:09;;;;;;;7.23;3.90;;;10.00;99.90;;;;;;4961039;28;20438;-28
2023/12/27 04:39:36;;;;;;;8.50;4.00;;;10.00;99.90;;;;;;4965798;28;21105;-31
2023/12/27 04:42:01;;;;;;;5.63;3.50;;;10.00;99.90;;;;;;4958664;28;20795;-32
2023/12/27 04:44:30;;;;;;;5.70;4.00;;;10.00;99.90;;;;;;4955139;28;20485;-30
2023/12/27 04:47:00;;;;;;;6.17;3.87;;;10.00;99.90;;;;;;4969866;28;20976;-31
2023/12/27 04:49:25;;;;;;;4.20;3.80;;;9.90;99.90;;;;;;4972545;28;20472;-33
2023/12/27 04:51:54;;;;;;;7.87;3.50;;;9.90;99.90;;;;;;4947586;28;20458;-32
2023/12/27 04:54:20;;;;;;;7.40;4.00;;;9.90;99.90;;;;;;4955873;28;20458;-32
2023/12/27 04:56:46;;;;;;;5.10;3.47;;;9.90;99.90;;;;;;4972564;28;20442;-29
2023/12/27 04:59:12;;;;;;;5.10;3.40;;;9.90;99.90;;;;;;4971769;28;20484;-36
2023/12/27 05:01:41;;;;;;;8.40;3.57;;;9.90;99.90;;;;;;4968545;28;20812;-36
2023/12/27 05:04:07;;;;;;;7.30;3.93;;;9.90;99.90;;;;;;4956394;28;21012;-31
2023/12/27 05:06:33;;;;;;;5.03;3.60;;;9.90;99.90;;;;;;4975768;28;20449;-32
2023/12/27 05:09:04;;;;;;;6.50;3.80;;;9.90;99.90;;;;;;4973369;28;20816;-35
2023/12/27 05:11:31;;;;;;;6.27;3.33;;;9.90;99.90;;;;;;4971358;28;20422;-34
2023/12/27 05:13:59;;;;;;;5.90;3.57;;;9.90;99.90;;;;;;4969102;28;20547;-34
2023/12/27 05:16:25;;;;;;;5.73;3.87;;;9.80;99.90;;;;;;4973378;28;20504;-32
2023/12/27 05:18:51;;;;;;;5.60;3.77;;;9.90;99.90;;;;;;4971541;28;20458;-37
2023/12/27 05:21:18;;;;;;;4.70;3.07;;;9.90;99.90;;;;;;4969522;28;20468;-34
2023/12/27 05:23:44;;;;;;;6.03;3.30;;;9.80;99.90;;;;;;4971770;28;20518;-36
2023/12/27 05:26:13;;;;;;;4.20;3.30;;;9.80;99.90;;;;;;4955951;28;20485;-35
2023/12/27 05:28:41;;;;;;;4.77;3.13;;;9.80;99.90;;;;;;4967871;28;20473;-29
2023/12/27 05:31:10;;;;;;;5.10;3.00;;;9.80;99.90;;;;;;4970339;28;20441;-33
2023/12/27 05:33:36;;;;;;;4.80;3.40;;;9.80;99.90;;;;;;4971083;28;20465;-32
2023/12/27 05:36:02;;;;;;;9.67;4.23;;;9.80;99.90;;;;;;4975446;28;20430;-33
2023/12/27 05:38:33;;;;;;;9.47;3.73;;;9.80;99.90;;;;;;4973557;28;20431;-32
2023/12/27 05:40:58;;;;;;;5.13;3.47;;;9.80;99.90;;;;;;4971413;28;20419;-32
2023/12/27 05:43:27;;;;;;;6.50;4.10;;;9.80;99.90;;;;;;4969649;28;20419;-33
2023/12/27 05:45:56;;;;;;;5.50;3.07;;;9.80;99.90;;;;;;4975971;28;20457;-33
2023/12/27 05:48:21;;;;;;;4.87;3.10;;;9.80;99.90;;;;;;4970972;28;21228;-38
2023/12/27 05:50:48;;;;;;;5.47;2.73;;;9.80;99.90;;;;;;4973529;28;20437;-35
2023/12/27 05:53:14;;;;;;;4.07;2.80;;;9.80;99.90;;;;;;4967615;28;20465;-34
2023/12/27 05:55:40;;;;;;;6.53;3.90;;;9.80;99.90;;;;;;4978195;28;20464;-34
2023/12/27 05:58:06;;;;;;;7.30;3.07;;;9.80;99.90;;;;;;4972272;28;21090;-31
2023/12/27 06:00:32;;;;;;;7.30;3.43;;;9.80;99.90;;;;;;4978128;28;20429;-35
2023/12/27 06:02:59;;;;;;;4.73;3.20;;;9.80;99.90;;;;;;4966447;28;21244;-33
2023/12/27 06:05:30;;;;;;;7.60;2.70;;;9.80;99.90;;;;;;4969005;28;20464;-35
2023/12/27 06:07:58;;;;;;;5.40;3.40;;;9.70;99.90;;;;;;4969334;28;21055;-36
2023/12/27 06:10:29;;;;;;;9.57;3.20;;;9.80;99.90;;;;;;4978008;28;20508;-30
2023/12/27 06:12:55;;;;;;;8.20;3.40;;;9.80;99.90;;;;;;4976498;28;20444;-32
2023/12/27 06:15:22;;;;;;;7.60;3.03;;;9.80;99.90;;;;;;4974259;28;20422;-32
2023/12/27 06:17:51;;;;;;;5.03;3.57;;;9.70;99.90;;;;;;4963785;28;20825;-36
2023/12/27 06:20:17;;;;;;;4.33;3.13;;;9.70;99.90;;;;;;4971050;28;21047;-35
2023/12/27 06:22:43;;;;;;;4.10;3.03;;;9.80;99.90;;;;;;4970016;28;20437;-35
2023/12/27 06:25:09;;;;;;;8.53;3.60;;;9.70;99.90;;;;;;4972870;28;21348;-38
2023/12/27 06:27:35;;;;;;;6.47;2.90;;;9.80;99.90;;;;;;4952342;28;21043;-37
2023/12/27 06:30:02;;;;;;;12.93;3.60;;;9.70;99.90;;;;;;4969350;28;20440;-33
2023/12/27 06:32:30;;;;;;;6.00;3.20;;;9.70;99.90;;;;;;4977181;28;20544;-31
2023/12/27 06:34:59;;;;;;;9.50;3.50;;;9.70;99.90;;;;;;4977998;28;20433;-37
2023/12/27 06:37:25;;;;;;;4.43;2.70;;;9.70;99.90;;;;;;4963910;28;20502;-34
2023/12/27 06:39:53;;;;;;;4.17;3.20;;;9.70;99.90;;;;;;4968271;28;20549;-31
2023/12/27 06:42:19;;;;;;;5.50;3.07;;;9.70;99.90;;;;;;4973202;28;20534;-33
2023/12/27 06:44:45;;;;;;;5.77;3.00;;;9.70;99.90;;;;;;4975673;28;20453;-34
2023/12/27 06:47:14;;;;;;;4.60;3.00;;;9.70;99.90;;;;;;4970019;28;20476;-35
2023/12/27 06:49:40;;;;;;;5.37;2.97;;;9.70;99.90;;;;;;4971393;28;20484;-33
2023/12/27 06:52:06;;;;;;;4.47;3.10;;;9.70;99.90;;;;;;4956671;28;20457;-34
2023/12/27 06:54:34;;;;;;;5.30;2.57;;;9.70;99.90;;;;;;4978360;28;20421;-36
2023/12/27 06:57:00;;;;;;;4.73;2.70;;;9.70;99.90;;;;;;4969120;28;20442;-30
2023/12/27 06:59:31;;;;;;;4.60;3.80;;;9.70;99.90;;;;;;4971274;28;20498;-34
2023/12/27 07:01:57;;;;;;;4.10;2.90;;;9.70;99.90;;;;;;4977353;28;20467;-37
2023/12/27 07:04:23;;;;;;;5.87;3.33;;;9.70;99.90;;;;;;4978347;28;20437;-35
2023/12/27 07:06:50;;;;;;;4.43;3.03;;;9.70;99.90;;;;;;4976331;28;20860;-33
2023/12/27 07:09:17;;;;;;;5.23;3.27;;;9.70;99.90;;;;;;4981462;28;20473;-38
2023/12/27 07:11:46;;;;;;;4.00;2.70;;;9.70;99.90;;;;;;4979037;28;20445;-34
2023/12/27 07:14:12;;;;;;;3.73;2.73;;;9.70;99.90;;;;;;4962765;28;20441;-30
2023/12/27 07:16:39;;;;;;;3.20;2.83;;;9.70;99.90;;;;;;4971114;28;20518;-33
2023/12/27 07:19:05;;;;;;;5.60;3.30;;;9.70;99.90;;;;;;4982504;28;20457;-34
2023/12/27 07:21:33;;;;;;;4.57;3.00;;;9.70;99.90;;;;;;4974824;28;21101;-33
2023/12/27 07:24:00;;;;;;;5.73;3.20;;;9.70;99.90;;;;;;4979575;28;20421;-33
2023/12/27 07:26:27;;;;;;;5.00;3.07;;;9.70;99.90;;;;;;4978124;28;20869;-35
2023/12/27 07:28:53;;;;;;;3.33;3.03;;;9.70;99.90;;;;;;4984370;28;21251;-37
2023/12/27 07:31:19;;;;;;;4.80;3.00;;;9.70;99.90;;;;;;4983437;28;20481;-36
2023/12/27 07:33:45;;;;;;;4.37;3.20;;;9.70;99.90;;;;;;4973267;28;20453;-34
2023/12/27 07:36:11;;;;;;;4.47;2.97;;;9.70;99.90;;;;;;4975780;28;20433;-36
2023/12/27 07:38:42;;;;;;;4.73;3.40;;;9.70;99.90;;;;;;4975181;28;20459;-32
2023/12/27 07:41:11;;;;;;;5.43;3.27;;;9.70;99.90;;;;;;4976767;28;21003;-31
2023/12/27 07:43:37;;;;;;;5.07;4.00;;;9.70;99.90;;;;;;4979627;28;20432;-36
2023/12/27 07:46:03;;;;;;;8.20;3.93;;;9.70;99.90;;;;;;4979300;28;20432;-34
2023/12/27 07:48:32;;;;;;;7.93;3.17;;;9.70;99.90;;;;;;4973152;28;20468;-33
2023/12/27 07:50:58;;;;;;;6.60;3.30;;;9.70;99.90;;;;;;4968561;28;21173;-36
2023/12/27 07:53:25;;;;;;;6.87;3.50;;;9.70;99.90;;;;;;4975672;28;20426;-37
2023/12/27 07:55:51;;;;;;;4.17;3.43;;;9.70;99.90;;;;;;4980706;28;20425;-35
2023/12/27 07:58:21;;;;;;;5.60;3.53;;;9.70;99.90;;;;;;4980299;28;20452;-30
2023/12/27 08:00:47;;;;;;;6.27;3.20;;;9.70;99.90;;;;;;4978587;28;20426;-34
2023/12/27 08:03:13;;;;;;;6.10;3.67;;;9.70;99.90;;;;;;4970196;28;20462;-34
2023/12/27 08:05:39;;;;;;;4.77;3.63;;;9.70;99.90;;;;;;4970934;28;21421;-36
2023/12/27 08:08:08;;;;;;;5.53;3.60;;;9.70;99.90;;;;;;4971629;28;20469;-37
2023/12/27 08:10:37;;;;;;;5.73;3.50;;;9.70;99.90;;;;;;4974658;28;20433;-37
2023/12/27 08:13:03;;;;;;;6.37;3.47;;;9.70;99.90;;;;;;4966499;28;20876;-37
2023/12/27 08:15:29;;;;;;;5.93;3.03;;;9.70;99.90;;;;;;4970923;28;20516;-36
2023/12/27 08:17:55;;;;;;;5.90;3.07;;;9.70;99.90;;;;;;4965232;28;20449;-37
2023/12/27 08:20:23;;;;;;;6.37;3.70;;;9.70;99.90;;;;;;4970545;28;20450;-35
2023/12/27 08:22:50;;;;;;;4.50;3.30;;;9.70;99.90;;;;;;4966440;28;20457;-37
2023/12/27 08:25:16;;;;;;;5.00;3.30;;;9.70;99.90;;;;;;4971252;28;21240;-37
2023/12/27 08:27:44;;;;;;;6.50;3.10;;;9.70;99.90;;;;;;4977318;28;20457;-37
2023/12/27 08:30:14;;;;;;;5.00;4.50;;;9.70;99.90;;;;;;4976410;28;20535;-38
2023/12/27 08:32:42;;;;;;;5.70;3.27;;;9.70;99.90;;;;;;4974015;28;20939;-31
2023/12/27 08:35:08;;;;;;;4.50;3.00;;;9.70;99.90;;;;;;4978913;28;20429;-27
2023/12/27 08:37:34;;;;;;;4.63;3.03;;;9.70;99.90;;;;;;4967217;28;20513;-33
2023/12/27 08:40:00;;;;;;;3.97;3.20;;;9.70;99.90;;;;;;4958259;28;20513;-30
2023/12/27 08:42:31;;;;;;;3.90;2.80;;;9.70;99.90;;;;;;4962438;28;20450;-31
2023/12/27 08:44:57;;;;;;;6.63;2.97;;;9.70;99.90;;;;;;4967108;28;20544;-31
2023/12/27 08:47:23;;;;;;;5.23;3.53;;;9.70;99.90;;;;;;4966205;28;20443;-29
2023/12/27 08:49:52;;;;;;;6.47;3.00;;;9.70;99.90;;;;;;4948979;28;21299;-25
2023/12/27 08:52:23;;;;;;;3.50;3.13;;;9.70;99.90;;;;;;4966452;28;20534;-27
2023/12/27 08:54:49;;;;;;;5.67;3.47;;;9.70;99.90;;;;;;4968921;28;20988;-27
2023/12/27 08:57:18;;;;;;;4.70;3.57;;;9.70;99.90;;;;;;4958103;28;20549;-27
2023/12/27 08:59:43;;;;;;;4.10;3.17;;;9.70;99.90;;;;;;4936139;28;20889;-33
2023/12/27 09:02:16;;;;;;;4.03;3.23;;;9.70;99.90;;;;;;4964364;28;20438;-31
2023/12/27 09:04:44;;;;;;;5.63;4.10;;;9.80;99.90;;;;;;4955931;28;20442;-32
2023/12/27 09:07:12;;;;;;;2.67;2.47;;;9.70;99.90;;;;;;4963692;28;20523;-35
2023/12/27 09:09:41;;;;;;;2.90;2.50;;;9.70;99.90;;;;;;4957578;28;21397;-27
2023/12/27 09:12:10;;;;;;;3.57;2.90;;;9.70;99.90;;;;;;4953007;28;20450;-33
2023/12/27 09:14:39;;;;;;;3.10;2.80;;;9.80;99.90;;;;;;4953315;28;20481;-35
2023/12/27 09:17:06;;;;;;;4.67;2.97;;;9.80;99.90;;;;;;4972299;28;20445;-29
2023/12/27 09:19:32;;;;;;;3.73;2.60;;;9.70;99.90;;;;;;4969746;28;20426;-33
2023/12/27 09:22:01;;;;;;;4.57;3.10;;;9.80;99.90;;;;;;4968341;28;20544;-27
2023/12/27 09:24:29;;;;;;;3.57;2.77;;;9.70;99.90;;;;;;4970877;28;20460;-31
2023/12/27 09:26:58;;;;;;;4.13;2.90;;;9.80;99.90;;;;;;4961292;28;20540;-30
2023/12/27 09:29:26;;;;;;;4.83;2.93;;;9.70;99.90;;;;;;4968019;28;20466;-32
2023/12/27 09:32:05;;;;;;;4.87;2.80;;;9.70;99.90;;;;;;4963857;23;20507;-84
2023/12/27 09:34:37;;;;;;;4.13;3.17;;;9.80;99.90;;;;;;4911148;29;20494;-84
2023/12/27 09:37:03;;;;;;;7.50;3.03;;;9.80;99.90;;;;;;4897872;29;20452;-84
2023/12/27 09:39:32;;;;;;;3.40;2.70;;;9.80;99.90;;;;;;4878845;29;20428;-85
2023/12/27 09:42:04;;;;;;;4.67;2.83;;;9.80;99.90;;;;;;4886849;29;20452;-84
2023/12/27 09:44:33;;;;;;;5.07;2.47;;;9.80;99.90;;;;;;4893130;29;20544;-83
2023/12/27 09:47:04;;;;;;;3.00;2.70;;;9.80;99.90;;;;;;4906216;29;21018;-83
2023/12/27 09:49:34;;;;;;;4.10;2.53;;;9.80;99.90;;;;;;4887909;29;21228;-84
2023/12/27 09:52:01;;;;;;;3.60;2.80;;;9.80;99.90;;;;;;4877354;29;20445;-84
2023/12/27 09:54:27;;;;;;;2.97;2.77;;;9.80;99.90;;;;;;4930359;29;20435;-83
2023/12/27 09:56:56;;;;;;;5.63;2.80;;;9.80;99.90;;;;;;4922489;28;20540;-84
2023/12/27 09:59:35;;;;;;;5.80;2.80;;;9.80;99.90;;;;;;4915150;29;20627;-84
2023/12/27 10:02:11;;;;;;;3.77;2.50;;;9.80;99.90;;;;;;4878145;29;20476;-84
2023/12/27 10:05:09;;;;;;;6.03;2.70;;;9.80;99.90;;;;;;4893342;29;21038;-84
2023/12/27 10:07:39;;;;;;;4.73;2.60;;;9.80;99.90;;;;;;4889628;29;20471;-83
2023/12/27 10:10:13;;;;;;;4.93;2.80;;;9.80;99.90;;;;;;4882641;29;20524;-83
2023/12/27 10:12:40;;;;;;;3.03;2.20;;;9.80;99.90;;;;;;4875288;29;20463;-83
2023/12/27 10:15:08;;;;;;;4.40;2.53;;;9.80;99.90;;;;;;4899948;29;20421;-84
2023/12/27 10:17:34;;;;;;;4.17;2.60;;;9.80;99.90;;;;;;4886235;29;21066;-84
2023/12/27 10:20:00;;;;;;;5.33;2.50;;;9.80;99.90;;;;;;4885032;29;20456;-84
2023/12/27 10:22:29;;;;;;;4.00;3.07;;;9.90;99.90;;;;;;4890949;29;20461;-85
2023/12/27 10:24:59;;;;;;;4.70;3.87;;;9.80;99.90;;;;;;4892767;29;20489;-85
2023/12/27 10:27:30;;;;;;;2.60;2.30;;;9.80;99.90;;;;;;4893164;29;20452;-83
2023/12/27 10:29:56;;;;;;;4.60;3.00;;;9.80;99.90;;;;;;4878855;29;20470;-83
2023/12/27 10:32:25;;;;;;;3.20;2.90;;;9.80;99.90;;;;;;4892206;29;20508;-83
2023/12/27 10:34:56;;;;;;;6.03;2.40;;;9.90;99.90;;;;;;4914032;29;20495;-82
2023/12/27 10:37:23;;;;;;;3.00;2.50;;;9.90;99.90;;;;;;4916749;29;20575;-85
2023/12/27 10:39:57;;;;;;;3.57;2.60;;;9.90;99.90;;;;;;4903376;29;21413;-84
2023/12/27 10:42:28;;;;;;;7.70;2.70;;;9.80;99.90;;;;;;4893143;29;20450;-86
2023/12/27 10:44:58;;;;;;;3.97;2.70;;;9.90;99.90;;;;;;4892888;29;20630;-83
2023/12/27 10:47:26;;;;;;;5.43;2.47;;;9.90;99.90;;;;;;4891983;29;21220;-82
2023/12/27 10:49:52;;;;;;;4.37;2.83;;;9.90;99.90;;;;;;4900094;29;20989;-82
2023/12/27 10:52:20;;;;;;;3.63;2.30;;;9.90;99.90;;;;;;4893255;29;20488;-82
2023/12/27 10:54:53;;;;;;;3.27;2.60;;;9.90;99.90;;;;;;4892360;29;20492;-84
2023/12/27 10:57:25;;;;;;;3.40;2.77;;;9.90;99.90;;;;;;4894376;29;20535;-81
2023/12/27 10:59:53;;;;;;;5.97;2.53;;;9.90;99.90;;;;;;4915862;29;20498;-85
2023/12/27 11:02:22;;;;;;;4.70;2.93;;;9.90;99.90;;;;;;4894279;29;20460;-84
2023/12/27 11:04:51;;;;;;;2.57;2.30;;;9.90;99.90;;;;;;4880288;29;20534;-84
2023/12/27 11:07:18;;;;;;;3.37;2.67;;;9.90;99.90;;;;;;4884993;29;20491;-86
2023/12/27 11:09:46;;;;;;;3.30;2.60;;;9.90;99.90;;;;;;4883615;29;20940;-83
2023/12/27 11:12:21;;;;;;;3.70;2.80;;;10.00;99.90;;;;;;4927261;29;21321;-84
2023/12/27 11:14:50;;;;;;;3.13;2.37;;;9.90;99.90;;;;;;4924299;29;20526;-84
2023/12/27 11:17:19;;;;;;;3.03;2.77;;;10.00;99.90;;;;;;4888978;29;21565;-83
2023/12/27 11:19:53;;;;;;;2.97;2.63;;;9.90;99.90;;;;;;4902436;29;20471;-83
2023/12/27 11:22:19;;;;;;;3.90;2.30;;;9.90;99.90;;;;;;4900415;29;20464;-83
2023/12/27 11:24:45;;;;;;;3.10;2.53;;;10.00;99.90;;;;;;4877003;29;20451;-84
2023/12/27 11:27:16;;;;;;;4.03;2.87;;;10.00;99.90;;;;;;4897062;29;20583;-83
2023/12/27 11:29:42;;;;;;;2.40;2.10;;;10.00;99.90;;;;;;4890002;29;20473;-86
2023/12/27 11:32:09;;;;;;;2.57;2.30;;;10.00;99.90;;;;;;4886075;29;20490;-83
2023/12/27 11:34:37;;;;;;;2.70;2.33;;;10.00;99.90;;;;;;4901407;29;20448;-85
2023/12/27 11:37:05;;;;;;;2.40;2.17;;;10.00;99.90;;;;;;4879228;29;20500;-85
2023/12/27 11:39:35;;;;;;;2.73;2.20;;;10.00;99.90;;;;;;4925994;29;20891;-83
2023/12/27 11:42:02;;;;;;;3.87;2.33;;;10.00;99.90;;;;;;4884178;29;20460;-83
2023/12/27 11:44:47;;;;;;;3.27;2.70;;;10.00;99.90;;;;;;4903475;29;21121;-86
2023/12/27 11:47:16;;;;;;;4.37;2.43;;;10.00;99.90;;;;;;4918297;29;20476;-84
2023/12/27 11:50:02;;;;;;;2.77;2.43;;;10.00;99.90;;;;;;4882216;29;20475;-84
2023/12/27 11:52:33;;;;;;;2.00;1.80;;;10.00;99.90;;;;;;4910472;29;20479;-84
2023/12/27 11:55:19;;;;;;;3.13;2.40;;;10.00;99.90;;;;;;4886154;29;20594;-83
2023/12/27 11:57:45;;;;;;;3.83;2.60;;;10.00;99.90;;;;;;4923440;29;20423;-84
2023/12/27 12:00:32;;;;;;;2.53;2.07;;;10.00;99.90;;;;;;4898986;29;20435;-85
2023/12/27 12:03:07;;;;;;;3.33;2.40;;;10.00;99.90;;;;;;4886967;29;20432;-84
2023/12/27 12:06:02;;;;;;;3.13;2.70;;;10.00;99.90;;;;;;4922338;28;20450;-84
2023/12/27 12:08:41;;;;;;;3.30;2.40;;;10.00;99.90;;;;;;4898158;29;20567;-84
2023/12/27 12:11:12;;;;;;;2.93;2.40;;;10.00;99.90;;;;;;4896315;29;20463;-84
2023/12/27 12:13:39;;;;;;;4.20;2.93;;;10.00;99.90;;;;;;4936179;29;20454;-83
2023/12/27 12:16:08;;;;;;;3.27;2.60;;;10.00;99.90;;;;;;4880183;29;20479;-83
2023/12/27 12:18:39;;;;;;;2.60;2.40;;;10.10;99.90;;;;;;4886501;29;20546;-84
2023/12/27 12:21:06;;;;;;;5.00;2.33;;;10.10;99.90;;;;;;4905838;29;20444;-83
2023/12/27 12:23:33;;;;;;;2.70;2.40;;;10.00;99.90;;;;;;4881244;29;20455;-83
2023/12/27 12:26:01;;;;;;;3.43;2.43;;;10.10;99.90;;;;;;4881389;29;20463;-84
2023/12/27 12:28:28;;;;;;;3.17;2.87;;;10.10;99.90;;;;;;4898508;29;20473;-82
2023/12/27 12:31:00;;;;;;;2.63;2.30;;;10.10;99.90;;;;;;4894569;29;20452;-84
2023/12/27 12:33:27;;;;;;;3.17;2.87;;;10.10;99.90;;;;;;4914030;29;20559;-84
2023/12/27 12:35:57;;;;;;;3.60;3.27;;;10.10;99.90;;;;;;4919468;29;20504;-85
2023/12/27 12:38:25;;;;;;;4.10;2.40;;;10.10;99.90;;;;;;4888622;29;20916;-82
2023/12/27 12:40:52;;;;;;;3.10;2.60;;;10.10;99.90;;;;;;4908034;29;20462;-83
2023/12/27 12:43:20;;;;;;;4.80;2.60;;;10.10;99.90;;;;;;4885995;29;20443;-85
2023/12/27 12:45:57;;;;;;;3.03;2.10;;;10.10;99.90;;;;;;4895862;29;20456;-83
2023/12/27 12:48:27;;;;;;;3.30;2.30;;;10.10;99.90;;;;;;4913120;29;20484;-84
2023/12/27 12:51:16;;;;;;;3.63;1.87;;;10.10;99.90;;;;;;4903041;29;20495;-84
2023/12/27 12:53:46;;;;;;;2.67;2.43;;;10.10;99.90;;;;;;4913568;29;20433;-81
2023/12/27 12:56:16;;;;;;;4.60;2.13;;;10.10;99.90;;;;;;4887255;29;20462;-83
2023/12/27 12:58:45;;;;;;;2.77;2.57;;;10.10;99.90;;;;;;4901263;29;20460;-83